Terminal Aerodrome Forecast
Issued by NWS

Home | Current Version | Previous Version | Text Only | Print | Product List | Glossary On
Versions: 1 2 3 4 5 6 7 8 9 10 11 12 13 14 15 16 17
190
FTUS43 KGRB 051505 AAA
TAFAUW
TAF AMD
KAUW 051505Z 0515/0612 23006KT P6SM SCT008 BKN020
      TEMPO 0515/0517 BKN008
     FM051700 21004KT P6SM BKN015
     FM051800 18006KT P6SM BKN012
     FM052100 17009KT P6SM -SN BKN015 WS020/21035KT PROB30 0600/0606
      -FZDZSN BKN009
     FM060600 16009KT 4SM BR OVC007 PROB30 0606/0612 4SM -SN OVC007=

USA.gov is the U.S. government's official web portal to all federal, state and local government web resources and services.